Time;durP1;ratioP1;P1;durP2;ratioP2;P2;SDS_P1;SDS_P2;PMS_P1;PMS_P2;Temp;Humidity;BMP_temperature;BMP_pressure;BME280_temperature;BME280_humidity;BME280_pressure;Samples;Min_cycle;Max_cycle;Signal;HPM_P1;HPM_P2
2022/08/13 00:01:36;;;;;;;2.35;2.15;;;;;;;20.44;98.73;101867.31;6187687;23;20021;-81
2022/08/13 00:04:14;;;;;;;2.05;1.83;;;;;;;20.40;98.85;101870.09;6184748;23;20261;-81
2022/08/13 00:07:08;;;;;;;2.70;1.88;;;;;;;20.36;99.54;101877.31;6153791;23;20017;-81
2022/08/13 00:09:41;;;;;;;1.67;1.58;;;;;;;20.31;99.96;101881.88;6186865;23;20025;-80
2022/08/13 00:15:20;;;;;;;2.83;2.20;;;;;;;20.19;100.00;101868.78;6181180;23;20055;-81
2022/08/13 00:17:49;;;;;;;2.90;1.85;;;;;;;20.14;100.00;101874.19;6187817;23;20025;-80
2022/08/13 00:20:41;;;;;;;3.40;2.35;;;;;;;20.09;100.00;101870.72;6177379;23;20025;-81
2022/08/13 00:23:22;;;;;;;4.07;2.10;;;;;;;20.04;100.00;101878.84;6153285;23;20412;-81
2022/08/13 00:26:11;;;;;;;5.85;2.00;;;;;;;20.00;100.00;101873.56;6159966;23;20142;-81
2022/08/13 00:28:57;;;;;;;3.28;2.00;;;;;;;19.97;100.00;101881.69;6161762;23;20028;-80
2022/08/13 00:31:27;;;;;;;3.45;2.30;;;;;;;19.93;100.00;101880.84;6154182;23;20359;-81
2022/08/13 00:33:57;;;;;;;4.47;2.25;;;;;;;19.90;100.00;101878.22;6152410;23;20017;-81
2022/08/13 00:36:26;;;;;;;4.20;2.35;;;;;;;19.86;100.00;101874.72;6153661;23;20009;-80
2022/08/13 00:39:07;;;;;;;3.65;2.50;;;;;;;19.85;100.00;101878.34;6185718;23;20238;-80
2022/08/13 00:41:40;;;;;;;3.97;2.72;;;;;;;19.84;100.00;101879.22;6189672;23;20017;-81
2022/08/13 00:44:31;;;;;;;5.40;2.30;;;;;;;19.81;100.00;101881.06;6185846;23;20017;-81
2022/08/13 00:49:50;;;;;;;3.70;2.43;;;;;;;19.78;100.00;101874.00;6187057;23;20024;-80
2022/08/13 00:52:31;;;;;;;6.10;2.60;;;;;;;19.78;100.00;101878.47;6189222;23;20021;-81
2022/08/13 00:55:09;;;;;;;6.05;2.80;;;;;;;19.76;100.00;101877.63;6177480;23;20530;-81
2022/08/13 00:57:40;;;;;;;7.57;2.55;;;;;;;19.78;100.00;101871.34;6171627;23;20021;-81
2022/08/13 01:00:19;;;;;;;4.13;2.70;;;;;;;19.84;100.00;101868.53;6149430;23;20048;-81
2022/08/13 01:02:51;;;;;;;3.30;2.60;;;;;;;19.89;100.00;101867.59;6187329;23;20513;-81
2022/08/13 01:05:25;;;;;;;3.08;2.30;;;;;;;19.94;100.00;101871.03;6165533;23;20370;-80
2022/08/13 01:08:03;;;;;;;3.75;2.67;;;;;;;19.97;100.00;101868.31;6175767;23;20021;-81
2022/08/13 01:10:35;;;;;;;4.75;2.88;;;;;;;20.01;100.00;101867.31;6189440;23;20474;-80
2022/08/13 01:13:11;;;;;;;2.28;2.15;;;;;;;20.03;100.00;101870.84;6170024;23;20040;-80
2022/08/13 01:15:42;;;;;;;2.90;2.60;;;;;;;20.03;100.00;101870.84;6152387;23;20013;-81
2022/08/13 01:18:24;;;;;;;2.55;2.30;;;;;;;20.01;100.00;101867.31;6188884;23;20024;-81
2022/08/13 01:21:08;;;;;;;3.75;2.42;;;;;;;19.99;100.00;101874.50;6162193;23;20600;-81
2022/08/13 01:23:39;;;;;;;4.72;2.35;;;;;;;19.97;100.00;101873.66;6155089;23;20021;-80
2022/08/13 01:26:10;;;;;;;6.68;2.80;;;;;;;19.96;100.00;101863.84;6153474;23;20162;-81
2022/08/13 01:28:40;;;;;;;6.38;2.65;;;;;;;19.96;100.00;101875.47;6146947;23;20306;-80
2022/08/13 01:31:14;;;;;;;4.25;2.85;;;;;;;19.94;100.00;101881.72;6183830;23;20021;-80
2022/08/13 01:33:49;;;;;;;4.95;2.80;;;;;;;19.95;100.00;101873.69;6152821;23;20024;-81
2022/08/13 01:36:21;;;;;;;5.72;2.60;;;;;;;19.94;100.00;101874.59;6177766;23;20020;-79
2022/08/13 01:39:10;;;;;;;4.20;2.88;;;;;;;19.95;100.00;101873.69;6135884;23;20493;-81
2022/08/13 01:41:48;;;;;;;6.45;2.50;;;;;;;19.94;100.00;101871.03;6155380;23;20021;-82
2022/08/13 01:44:24;;;;;;;3.95;2.30;;;;;;;19.94;100.00;101874.59;6163831;23;20025;-81
2022/08/13 01:53:07;;;;;;;5.75;2.53;;;;;;;19.86;100.00;101861.34;6185111;23;20021;-82
2022/08/13 01:55:42;;;;;;;4.95;2.47;;;;;;;19.86;100.00;101869.38;6155789;23;20021;-81
2022/08/13 01:58:30;;;;;;;2.78;2.28;;;;;;;19.85;100.00;101864.97;6157772;23;20474;-80
2022/08/13 02:01:04;;;;;;;3.17;2.20;;;;;;;19.81;100.00;101865.94;6167900;23;20217;-80
2022/08/13 02:03:38;;;;;;;3.03;2.70;;;;;;;19.82;100.00;101862.34;6185326;23;20372;-80
2022/08/13 02:06:11;;;;;;;8.50;2.35;;;;;;;19.80;100.00;101866.84;6174191;23;20214;-80
2022/08/13 02:08:58;;;;;;;2.72;2.13;;;;;;;19.79;100.00;101866.84;6153970;23;20028;-80
2022/08/13 02:11:29;;;;;;;4.10;2.15;;;;;;;19.76;100.00;101862.47;6190275;23;20017;-81
2022/08/13 02:14:02;;;;;;;3.50;2.47;;;;;;;19.74;100.00;101869.63;6125314;23;20025;-81
2022/08/13 02:16:33;;;;;;;4.03;2.20;;;;;;;19.71;100.00;101864.28;6165014;23;20016;-80
2022/08/13 02:19:04;;;;;;;5.60;2.35;;;;;;;19.68;100.00;101864.38;6181808;23;20394;-80
2022/08/13 02:21:52;;;;;;;5.13;2.65;;;;;;;19.66;100.00;101866.19;6174537;23;20462;-80
2022/08/13 02:24:21;;;;;;;5.30;2.30;;;;;;;19.64;100.00;101868.91;6139475;23;20025;-81
2022/08/13 02:26:50;;;;;;;4.68;2.30;;;;;;;19.64;100.00;101868.91;6186739;23;20028;-81
2022/08/13 02:29:23;;;;;;;2.22;2.00;;;;;;;19.64;100.00;101873.34;6154726;23;20025;-81
2022/08/13 02:31:53;;;;;;;6.38;2.03;;;;;;;19.63;100.00;101866.25;6121373;23;20457;-82
2022/08/13 02:34:42;;;;;;;3.15;2.25;;;;;;;19.63;100.00;101868.91;6163587;23;20017;-80
2022/08/13 02:37:13;;;;;;;5.38;2.28;;;;;;;19.63;100.00;101872.47;6185485;23;20024;-81
2022/08/13 02:40:04;;;;;;;4.13;2.30;;;;;;;19.62;100.00;101870.72;6174084;23;20123;-81
2022/08/13 02:42:35;;;;;;;4.88;2.20;;;;;;;19.61;100.00;101873.41;6187192;23;20021;-81
2022/08/13 02:45:05;;;;;;;4.38;2.13;;;;;;;19.56;100.00;101870.81;6135285;23;20047;-80
2022/08/13 02:47:39;;;;;;;3.50;2.05;;;;;;;19.52;100.00;101870.91;6148227;23;20181;-80
2022/08/13 02:50:12;;;;;;;2.25;2.05;;;;;;;19.47;100.00;101869.19;6137373;23;20242;-82
2022/08/13 02:52:41;;;;;;;5.90;1.77;;;;;;;19.45;100.00;101872.78;6163290;23;20021;-82
2022/08/13 02:55:29;;;;;;;3.55;2.10;;;;;;;19.43;100.00;101866.59;6166138;23;20028;-81
2022/08/13 02:58:03;;;;;;;4.43;2.45;;;;;;;19.40;100.00;101870.19;6174185;23;20122;-81
2022/08/13 03:00:32;;;;;;;2.65;2.38;;;;;;;19.37;100.00;101867.56;6163373;23;20582;-81
2022/08/13 03:03:04;;;;;;;3.63;1.92;;;;;;;19.36;100.00;101872.97;6141213;23;20029;-80
2022/08/13 03:05:39;;;;;;;4.28;2.30;;;;;;;19.32;100.00;101873.91;6185301;23;20029;-80
2022/08/13 03:08:28;;;;;;;3.15;2.00;;;;;;;19.27;100.00;101879.34;6157126;23;20024;-81
2022/08/13 03:11:10;;;;;;;2.67;2.38;;;;;;;19.24;100.00;101876.72;6184052;23;20134;-80
2022/08/13 03:13:47;;;;;;;1.98;1.88;;;;;;;19.22;100.00;101876.72;6178711;23;20355;-80
2022/08/13 03:16:25;;;;;;;3.33;2.78;;;;;;;19.25;100.00;101878.50;6176467;23;20024;-81
2022/08/13 03:18:57;;;;;;;2.40;2.17;;;;;;;19.24;100.00;101872.28;6160719;23;20032;-80
2022/08/13 03:21:36;;;;;;;3.40;2.25;;;;;;;19.22;100.00;101879.41;6186156;23;20484;-81
2022/08/13 03:24:14;;;;;;;6.65;2.35;;;;;;;19.19;100.00;101871.44;6186688;23;20394;-81
2022/08/13 03:27:00;;;;;;;2.40;2.20;;;;;;;19.20;100.00;101883.00;6161704;23;20021;-81
2022/08/13 03:29:29;;;;;;;2.25;2.05;;;;;;;19.17;100.00;101880.38;6189501;23;20024;-81
2022/08/13 03:32:18;;;;;;;5.75;3.38;;;;;;;19.12;100.00;101876.91;6156842;23;20242;-82
2022/08/13 03:34:59;;;;;;;3.55;2.35;;;;;;;19.09;100.00;101881.41;6144070;23;20478;-81
2022/08/13 03:37:42;;;;;;;3.72;1.85;;;;;;;19.07;100.00;101879.66;6162032;23;20017;-81
2022/08/13 03:40:15;;;;;;;3.85;1.85;;;;;;;19.05;100.00;101890.38;6161156;23;20128;-81
2022/08/13 03:42:48;;;;;;;2.67;2.47;;;;;;;19.05;100.00;101876.13;6137777;23;20017;-81
2022/08/13 03:45:24;;;;;;;3.70;2.30;;;;;;;19.04;99.24;101883.25;6187705;23;20032;-81
2022/08/13 03:47:55;;;;;;;4.40;2.20;;;;;;;19.04;98.61;101883.25;6135599;23;20036;-81
2022/08/13 03:50:24;;;;;;;3.30;2.90;;;;;;;19.06;97.82;101877.91;6145394;23;20031;-82
2022/08/13 03:52:53;;;;;;;5.15;2.20;;;;;;;19.08;97.32;101878.75;6159675;23;20465;-81
2022/08/13 03:55:24;;;;;;;2.13;1.92;;;;;;;19.10;97.36;101876.94;6178364;23;20350;-81
2022/08/13 03:57:55;;;;;;;2.53;2.33;;;;;;;19.10;96.63;101882.28;6139186;23;20347;-80
2022/08/13 04:00:48;;;;;;;5.20;2.38;;;;;;;19.10;96.27;101882.28;6189117;23;20013;-80
2022/08/13 04:03:22;;;;;;;8.30;2.10;;;;;;;19.11;95.84;101878.72;6187866;23;20142;-81
2022/08/13 04:05:59;;;;;;;2.75;1.95;;;;;;;19.12;95.79;101874.25;6160522;23;20024;-81
2022/08/13 04:08:34;;;;;;;2.95;2.00;;;;;;;19.12;94.88;101874.25;6189606;23;20047;-81
2022/08/13 04:11:08;;;;;;;3.08;2.08;;;;;;;19.12;95.22;101879.59;6181137;23;20024;-80
2022/08/13 04:13:38;;;;;;;3.30;2.35;;;;;;;19.09;96.17;101875.16;6191491;23;20020;-80
2022/08/13 04:16:26;;;;;;;2.42;2.22;;;;;;;19.05;96.49;101874.34;6190509;23;20021;-80
2022/08/13 04:19:03;;;;;;;4.05;2.25;;;;;;;19.03;96.74;101877.94;6163094;23;20234;-81
2022/08/13 04:21:45;;;;;;;3.60;2.03;;;;;;;18.97;97.48;101876.25;6143763;23;20359;-81
2022/08/13 04:24:16;;;;;;;7.05;2.20;;;;;;;18.94;97.60;101878.06;6129936;23;20146;-81
2022/08/13 04:26:54;;;;;;;2.65;2.00;;;;;;;18.89;97.86;101883.50;6185946;23;20077;-81
2022/08/13 04:29:23;;;;;;;3.45;1.70;;;;;;;18.87;97.94;101877.31;6168031;23;20013;-81
2022/08/13 04:31:52;;;;;;;2.20;2.10;;;;;;;18.85;98.27;101887.13;6140726;23;20020;-81
2022/08/13 04:34:25;;;;;;;3.67;1.98;;;;;;;18.83;98.05;101880.94;6155747;23;20031;-80
2022/08/13 04:37:08;;;;;;;5.72;1.90;;;;;;;18.80;97.99;101879.16;6116376;23;20639;-81
2022/08/13 04:39:50;;;;;;;3.13;2.28;;;;;;;18.80;98.49;101884.50;6179287;23;20017;-81
2022/08/13 04:42:47;;;;;;;2.05;1.95;;;;;;;18.77;98.73;101883.63;6192675;23;20332;-81
2022/08/13 04:45:18;;;;;;;4.30;1.95;;;;;;;18.76;98.87;101876.53;6164826;23;20040;-81
2022/08/13 04:47:54;;;;;;;5.10;2.17;;;;;;;18.76;98.56;101884.56;6165377;23;20028;-81
2022/08/13 04:50:24;;;;;;;5.28;2.10;;;;;;;18.77;98.03;101876.53;6191267;23;20021;-80
2022/08/13 04:52:56;;;;;;;3.75;1.92;;;;;;;18.77;98.33;101881.88;6169928;23;20024;-82
2022/08/13 04:55:27;;;;;;;5.65;2.10;;;;;;;18.94;98.38;101872.72;6181619;23;20021;-80
2022/08/13 04:58:16;;;;;;;3.53;1.60;;;;;;;19.40;97.58;101872.88;6187418;23;20225;-81
2022/08/13 05:00:45;;;;;;;4.72;2.08;;;;;;;19.80;97.06;101876.66;6156793;23;20019;-80
2022/08/13 05:03:21;;;;;;;3.17;1.73;;;;;;;20.09;96.65;101870.72;6189386;23;20025;-80
2022/08/13 05:06:00;;;;;;;;;;;;;;;20.23;94.60;101873.13;6162454;23;20522;-81
2022/08/13 05:08:31;;;;;;;2.47;1.95;;;;;;;20.37;96.18;101871.03;6164258;23;19923;-81
2022/08/13 05:11:00;;;;;;;4.15;1.90;;;;;;;20.56;95.01;101870.63;6182292;23;20218;-81
2022/08/13 05:13:33;;;;;;;3.30;2.10;;;;;;;20.65;94.78;101870.47;6130478;23;20025;-81
2022/08/13 05:16:12;;;;;;;;;;;;;;;20.96;91.42;101878.69;6153874;23;20647;-80
2022/08/13 05:18:44;;;;;;;2.58;2.17;;;;;;;21.54;92.30;101868.31;6188609;23;19916;-80
2022/08/13 05:21:14;;;;;;;3.55;2.40;;;;;;;22.34;89.99;101874.19;6188984;23;20596;-80
2022/08/13 05:23:53;;;;;;;3.13;1.70;;;;;;;23.06;87.08;101870.16;6160439;23;20021;-81
2022/08/13 05:26:41;;;;;;;3.40;2.40;;;;;;;23.50;84.24;101875.88;6179845;23;20469;-81
2022/08/13 05:29:26;;;;;;;2.83;1.60;;;;;;;23.65;83.00;101872.63;6168796;23;20016;-81
2022/08/13 05:31:54;;;;;;;4.72;1.63;;;;;;;23.47;81.48;101874.16;6161450;23;20019;-81
2022/08/13 05:34:28;;;;;;;2.05;1.95;;;;;;;23.20;78.52;101864.34;6131989;23;20024;-81
2022/08/13 05:36:58;;;;;;;4.18;1.58;;;;;;;23.00;78.46;101870.34;6187862;23;20017;-81
2022/08/13 05:39:47;;;;;;;3.40;1.67;;;;;;;22.77;79.00;101869.28;6152248;23;20390;-81
2022/08/13 05:42:20;;;;;;;3.97;1.80;;;;;;;22.78;77.36;101861.16;6164240;23;20021;-81
2022/08/13 05:44:56;;;;;;;4.00;1.88;;;;;;;22.78;76.02;101860.31;6184405;23;20352;-81
2022/08/13 05:47:28;;;;;;;2.17;1.70;;;;;;;22.77;76.10;101859.41;6189041;23;20128;-80
2022/08/13 05:50:08;;;;;;;2.65;1.83;;;;;;;22.99;75.87;101864.09;6186893;23;20017;-80
2022/08/13 05:52:39;;;;;;;5.05;1.80;;;;;;;23.06;73.49;101860.31;6155469;23;20017;-81
2022/08/13 05:55:16;;;;;;;2.75;1.70;;;;;;;23.08;72.06;101853.09;6136982;23;20021;-80
2022/08/13 05:58:07;;;;;;;4.55;1.80;;;;;;;23.15;70.36;101861.81;6182958;23;20017;-81
2022/08/13 06:03:41;;;;;;;3.33;2.05;;;;;;;23.09;71.87;101856.63;6189195;23;20017;-81
2022/08/13 06:06:29;;;;;;;1.95;1.83;;;;;;;23.28;72.26;101864.97;6134992;23;20035;-81
2022/08/13 06:09:05;;;;;;;6.38;1.92;;;;;;;23.46;71.25;101863.44;6161095;23;20367;-81
2022/08/13 06:11:40;;;;;;;2.28;2.08;;;;;;;23.56;70.38;101856.81;6149780;23;20013;-80
2022/08/13 06:14:35;;;;;;;2.10;1.90;;;;;;;23.53;70.33;101871.28;6165300;23;20017;-80
2022/08/13 06:17:06;;;;;;;2.03;1.83;;;;;;;23.45;70.58;101867.06;6186060;23;20116;-81
2022/08/13 06:19:43;;;;;;;2.22;1.58;;;;;;;23.36;70.55;101862.88;6187218;23;20026;-81
2022/08/13 06:22:20;;;;;;;1.83;1.52;;;;;;;23.30;70.35;101865.78;6188201;23;20017;-79
2022/08/13 06:24:51;;;;;;;4.05;1.58;;;;;;;23.26;70.10;101862.31;6187903;23;20031;-81
2022/08/13 06:27:27;;;;;;;1.83;1.70;;;;;;;23.21;69.58;101861.59;6139951;23;20021;-80
2022/08/13 06:30:19;;;;;;;3.70;1.90;;;;;;;23.18;71.55;101866.22;6163591;23;20017;-81
2022/08/13 06:33:01;;;;;;;5.13;1.50;;;;;;;23.13;71.89;101871.72;6162583;23;20017;-80
2022/08/13 06:35:53;;;;;;;4.47;2.13;;;;;;;23.09;71.90;101870.06;6185934;23;20021;-80
2022/08/13 06:38:31;;;;;;;2.55;2.10;;;;;;;23.07;71.41;101872.81;6157960;23;20332;-80
2022/08/13 06:41:04;;;;;;;3.13;1.90;;;;;;;23.10;71.84;101863.75;6145215;23;20617;-81
2022/08/13 06:43:41;;;;;;;2.40;2.00;;;;;;;23.15;71.33;101867.19;6183343;23;20400;-81
2022/08/13 06:46:30;;;;;;;3.17;1.52;;;;;;;23.25;71.89;101865.06;6188311;23;20031;-80
2022/08/13 06:49:02;;;;;;;3.30;2.00;;;;;;;23.30;71.05;101874.72;6175585;23;20036;-81
2022/08/13 06:51:33;;;;;;;4.32;2.08;;;;;;;23.36;70.80;101870.94;6155304;23;20009;-81
2022/08/13 06:54:10;;;;;;;3.35;2.00;;;;;;;23.41;69.99;101876.19;6153428;23;20482;-81
2022/08/13 06:56:59;;;;;;;4.85;2.15;;;;;;;23.44;69.20;101874.28;6175140;23;20020;-81
2022/08/13 06:59:54;;;;;;;11.98;2.58;;;;;;;23.50;69.37;101878.56;6155133;23;20021;-81
2022/08/13 07:02:44;;;;;;;3.80;2.00;;;;;;;23.57;70.10;101880.09;6153916;23;20021;-80
2022/08/13 07:05:13;;;;;;;;;;;;;;;23.61;69.65;101873.69;6175923;23;20481;-81
2022/08/13 07:07:48;;;;;;;3.92;1.67;;;;;;;23.67;69.70;101884.22;6163350;23;19916;-80
2022/08/13 07:10:17;;;;;;;4.00;2.13;;;;;;;23.73;68.94;101884.00;6187954;23;20052;-80
2022/08/13 07:12:46;;;;;;;4.45;2.13;;;;;;;23.79;67.85;101887.44;6147257;23;20024;-82
2022/08/13 07:15:16;;;;;;;2.78;1.70;;;;;;;23.85;67.05;101877.31;6136690;23;20333;-80
2022/08/13 07:18:06;;;;;;;6.05;1.70;;;;;;;23.95;67.12;101877.91;6179234;23;20138;-81
2022/08/13 07:20:36;;;;;;;3.85;1.70;;;;;;;24.06;67.73;101886.44;6189915;23;20020;-82
2022/08/13 07:23:06;;;;;;;4.40;1.90;;;;;;;24.16;67.97;101881.59;6180660;23;20435;-80
2022/08/13 07:25:57;;;;;;;7.43;1.55;;;;;;;24.29;67.26;101885.59;6154640;23;20603;-81
2022/08/13 07:28:28;;;;;;;1.92;1.55;;;;;;;24.42;67.14;101890.50;6166255;23;20025;-80
2022/08/13 07:31:22;;;;;;;5.53;2.00;;;;;;;24.52;65.83;101882.03;6160732;23;20032;-80
2022/08/13 07:33:53;;;;;;;1.73;1.42;;;;;;;24.63;65.57;101894.19;6182867;23;20021;-81
2022/08/13 07:36:31;;;;;;;4.10;1.60;;;;;;;24.71;65.20;101894.78;6165027;23;20021;-81
2022/08/13 07:39:02;;;;;;;7.28;1.80;;;;;;;24.78;63.79;101884.63;6183550;23;20386;-81
2022/08/13 07:41:45;;;;;;;7.28;1.83;;;;;;;24.85;61.39;101888.84;6154622;23;20017;-81
2022/08/13 07:44:31;;;;;;;1.95;1.60;;;;;;;24.89;62.45;101894.03;6173061;23;20028;-81
2022/08/13 07:47:13;;;;;;;1.77;1.58;;;;;;;24.94;62.00;101888.47;6183091;23;20841;-81
2022/08/13 07:49:54;;;;;;;4.38;1.70;;;;;;;25.00;61.32;101887.34;6186397;23;20048;-83
2022/08/13 07:52:27;;;;;;;3.65;1.50;;;;;;;25.06;61.66;101887.09;6189267;23;20028;-83
2022/08/13 07:55:01;;;;;;;4.03;1.50;;;;;;;25.12;60.45;101889.53;6181010;23;20331;-83
2022/08/13 07:57:32;;;;;;;1.48;1.20;;;;;;;25.16;58.76;101893.88;6154517;23;20029;-81
2022/08/13 08:00:21;;;;;;;1.50;1.40;;;;;;;25.21;58.44;101894.53;6172241;23;20024;-81
2022/08/13 08:03:01;;;;;;;6.65;1.48;;;;;;;25.28;57.31;101901.47;6184461;23;20359;-81
2022/08/13 08:05:33;;;;;;;;;;;;;;;25.32;58.40;101902.22;6189590;23;20021;-81
2022/08/13 08:08:10;;;;;;;2.95;1.20;;;;;;;25.38;58.53;101898.38;6187538;23;20046;-83
2022/08/13 08:10:40;;;;;;;2.67;1.25;;;;;;;25.46;58.38;101901.63;6127582;23;20021;-81
2022/08/13 08:13:12;;;;;;;2.88;1.55;;;;;;;25.54;57.06;101904.00;6188165;23;20021;-80
2022/08/13 08:15:44;;;;;;;1.55;1.45;;;;;;;25.57;56.43;101907.44;6149684;23;20017;-83
2022/08/13 08:18:33;;;;;;;3.45;1.20;;;;;;;25.62;56.46;101902.72;6187987;23;20024;-82
2022/08/13 08:21:23;;;;;;;2.20;1.33;;;;;;;25.67;57.31;101900.72;6190294;23;20477;-81
2022/08/13 08:24:13;;;;;;;;;;;;;;;25.74;56.91;101898.59;6127630;23;20036;-83
2022/08/13 08:26:53;;;;;;;4.60;1.30;;;;;;;25.79;56.78;101901.13;6208412;23;20507;-82
2022/08/13 08:29:22;;;;;;;5.75;1.20;;;;;;;25.83;57.56;101900.91;6154012;23;20017;-82
2022/08/13 08:31:52;;;;;;;1.73;1.20;;;;;;;25.89;56.84;101897.06;6156457;23;20221;-82
2022/08/13 08:34:29;;;;;;;1.95;1.30;;;;;;;25.95;56.52;101902.22;6177435;23;20021;-82
2022/08/13 08:36:58;;;;;;;4.85;1.10;;;;;;;26.01;56.77;101891.16;6153623;23;20032;-82
2022/08/13 08:42:38;;;;;;;1.02;1.02;;;;;;;26.16;55.23;101907.59;6160015;23;20028;-82
2022/08/13 08:45:27;;;;;;;1.30;1.20;;;;;;;26.25;55.33;101907.16;6176058;23;20036;-83
2022/08/13 08:48:18;;;;;;;1.88;1.15;;;;;;;26.34;55.18;101903.19;6180196;23;20025;-82
2022/08/13 08:51:00;;;;;;;2.25;1.27;;;;;;;26.41;55.27;101901.94;6158703;23;20021;-82
2022/08/13 08:53:35;;;;;;;1.63;1.30;;;;;;;26.47;56.19;101898.09;6153427;23;20024;-81
2022/08/13 08:56:24;;;;;;;4.05;1.58;;;;;;;26.53;56.19;101901.34;6162710;23;20016;-78
2022/08/13 08:58:55;;;;;;;3.67;1.60;;;;;;;26.58;55.63;101887.66;6129476;23;20083;-79
2022/08/13 09:01:25;;;;;;;2.80;1.38;;;;;;;26.62;56.38;101886.56;6178682;23;20032;-80
2022/08/13 09:03:56;;;;;;;4.75;1.20;;;;;;;26.64;55.90;101884.66;6159312;23;20481;-81
2022/08/13 09:06:28;;;;;;;4.05;1.45;;;;;;;26.69;57.63;101888.00;6183817;23;20021;-80
2022/08/13 09:09:18;;;;;;;3.60;1.38;;;;;;;26.72;57.81;101881.59;6179456;23;20508;-80
2022/08/13 09:11:49;;;;;;;;;;;;;;;26.70;57.47;101883.50;6183154;23;20690;-80
2022/08/13 09:14:27;;;;;;;4.25;1.50;;;;;;;26.70;59.57;101881.66;6186933;23;19923;-78
2022/08/13 09:16:57;;;;;;;2.72;1.45;;;;;;;26.72;59.46;101884.31;6167482;23;20032;-80
2022/08/13 09:19:27;;;;;;;6.50;1.50;;;;;;;26.74;59.53;101888.66;6182691;23;20017;-80
2022/08/13 09:22:24;;;;;;;3.53;1.20;;;;;;;26.76;59.93;101886.75;6166683;23;20451;-80
2022/08/13 09:24:57;;;;;;;5.63;1.48;;;;;;;26.82;60.19;101883.78;6188670;23;20021;-80
2022/08/13 09:27:28;;;;;;;1.30;1.20;;;;;;;26.91;58.84;101885.16;6159171;23;20189;-78
2022/08/13 09:30:16;;;;;;;5.53;1.58;;;;;;;26.95;59.38;101885.88;6116506;23;20032;-80
2022/08/13 09:32:57;;;;;;;5.00;1.40;;;;;;;26.99;59.50;101890.16;6158536;23;20024;-79
2022/08/13 09:35:28;;;;;;;11.77;3.92;;;;;;;27.02;58.23;101880.09;6148686;23;20020;-79
2022/08/13 09:38:07;;;;;;;10.10;2.80;;;;;;;27.00;57.70;101878.41;6187431;23;20032;-78
2022/08/13 09:40:48;;;;;;;19.13;6.72;;;;;;;26.99;59.07;101879.34;6149893;23;20493;-80
2022/08/13 09:43:40;;;;;;;3.72;1.63;;;;;;;27.06;57.92;101879.94;6174550;23;20025;-80
2022/08/13 09:46:16;;;;;;;2.35;1.25;;;;;;;27.07;56.05;101882.56;6187453;23;20435;-81
2022/08/13 09:48:51;;;;;;;4.15;1.25;;;;;;;27.10;55.99;101879.69;6134674;23;20188;-80
2022/08/13 09:51:22;;;;;;;1.40;1.30;;;;;;;27.14;54.61;101883.13;6185788;23;20017;-80
2022/08/13 09:54:10;;;;;;;4.45;1.50;;;;;;;27.19;54.55;101887.34;6159223;23;20016;-80
2022/08/13 09:56:39;;;;;;;4.10;1.40;;;;;;;27.23;53.56;101880.81;6186302;23;20033;-79
2022/08/13 09:59:10;;;;;;;6.45;1.45;;;;;;;27.30;53.47;101873.31;6160687;23;20358;-80
2022/08/13 10:01:43;;;;;;;8.75;2.33;;;;;;;27.36;52.97;101874.84;6188931;23;20028;-80
2022/08/13 10:04:26;;;;;;;15.50;4.72;;;;;;;27.36;52.30;101870.28;6159794;23;21281;-79
2022/08/13 10:06:57;;;;;;;11.02;3.28;;;;;;;27.40;52.04;101873.72;6180727;23;20036;-79
2022/08/13 10:09:33;;;;;;;3.38;1.50;;;;;;;27.42;50.78;101869.97;6187426;23;20028;-79
2022/08/13 10:12:05;;;;;;;1.40;1.30;;;;;;;27.49;49.85;101865.13;6149701;23;20032;-79
2022/08/13 10:14:48;;;;;;;1.48;1.05;;;;;;;27.54;48.58;101863.06;6149096;23;20029;-80
2022/08/13 10:17:26;;;;;;;4.20;1.38;;;;;;;27.59;48.56;101860.09;6164956;23;20021;-79
2022/08/13 10:20:17;;;;;;;1.87;1.30;;;;;;;27.71;49.09;101862.19;6150362;23;20021;-80
2022/08/13 10:22:49;;;;;;;3.67;1.25;;;;;;;27.80;48.05;101841.84;6170092;23;20320;-79
2022/08/13 10:25:25;;;;;;;4.93;1.27;;;;;;;27.84;46.56;101847.97;6164581;23;20069;-80
2022/08/13 10:28:17;;;;;;;2.15;1.00;;;;;;;27.81;45.83;101840.88;6177273;23;20009;-79
2022/08/13 10:31:01;;;;;;;3.85;1.23;;;;;;;27.86;46.04;101843.34;6180343;23;20380;-80
2022/08/13 10:33:53;;;;;;;3.20;1.20;;;;;;;27.92;45.46;101838.50;6153418;23;20378;-81
2022/08/13 10:36:26;;;;;;;1.40;1.10;;;;;;;27.96;45.29;101833.81;6167952;23;20427;-79
2022/08/13 10:39:04;;;;;;;4.63;1.45;;;;;;;28.05;45.84;101838.69;6140467;23;20593;-80
2022/08/13 10:41:43;;;;;;;2.58;1.17;;;;;;;28.12;45.27;101847.38;6162104;23;20021;-79
2022/08/13 10:44:31;;;;;;;2.55;1.00;;;;;;;28.18;44.62;101834.34;6181688;23;20040;-80
2022/08/13 10:46:59;;;;;;;2.63;1.17;;;;;;;28.19;43.56;101841.53;6149169;23;20024;-80
2022/08/13 10:49:31;;;;;;;1.30;1.13;;;;;;;28.19;43.85;101843.38;6185676;23;20252;-80
2022/08/13 10:52:03;;;;;;;1.80;1.33;;;;;;;28.21;43.71;101835.16;6133571;23;20025;-80
2022/08/13 10:54:33;;;;;;;6.77;1.60;;;;;;;28.24;44.07;101833.13;6173344;23;20024;-80
2022/08/13 10:57:07;;;;;;;1.20;1.10;;;;;;;28.24;43.60;101840.38;6137856;23;20044;-80
2022/08/13 10:59:45;;;;;;;1.13;1.05;;;;;;;28.27;42.73;101834.81;6149967;23;20025;-80
2022/08/13 11:02:13;;;;;;;1.65;1.10;;;;;;;28.27;43.13;101832.09;6163214;23;20028;-80
2022/08/13 11:04:48;;;;;;;1.73;1.30;;;;;;;28.32;43.13;101822.75;6160842;23;20028;-79
2022/08/13 11:07:22;;;;;;;3.63;1.27;;;;;;;28.41;43.10;101815.06;6163809;23;20032;-80
2022/08/13 11:09:52;;;;;;;3.25;1.30;;;;;;;28.44;42.58;101818.47;6184315;23;20017;-80
2022/08/13 11:12:24;;;;;;;1.25;1.10;;;;;;;28.48;42.31;101811.91;6155915;23;20025;-81
2022/08/13 11:14:55;;;;;;;2.97;1.05;;;;;;;28.54;41.68;101818.84;6178334;23;20563;-79
2022/08/13 11:17:24;;;;;;;2.28;1.00;;;;;;;28.56;41.86;101819.63;6151938;23;20024;-79
2022/08/13 11:20:17;;;;;;;4.63;1.20;;;;;;;28.55;41.39;101821.47;6150383;23;20027;-81
2022/08/13 11:22:53;;;;;;;3.42;1.10;;;;;;;28.57;41.62;101818.69;6140775;23;20032;-81
2022/08/13 11:25:23;;;;;;;1.85;1.13;;;;;;;28.65;41.51;101808.25;6185327;23;20028;-80
2022/08/13 11:28:12;;;;;;;1.10;1.10;;;;;;;28.76;41.22;101813.94;6188326;23;20207;-80
2022/08/13 11:30:47;;;;;;;1.85;1.10;;;;;;;28.87;40.99;101807.00;6172895;23;20077;-79
2022/08/13 11:33:19;;;;;;;1.45;1.00;;;;;;;28.94;40.32;101806.56;6163699;23;20028;-79
2022/08/13 11:36:08;;;;;;;1.33;1.05;;;;;;;28.96;40.03;101801.00;6189181;23;20290;-80
2022/08/13 11:38:41;;;;;;;1.67;1.30;;;;;;;29.01;39.84;101801.63;6168725;23;20028;-79
2022/08/13 11:41:10;;;;;;;7.00;1.20;;;;;;;29.04;39.55;101801.44;6183819;23;20020;-80
2022/08/13 11:43:48;;;;;;;1.08;1.00;;;;;;;29.09;40.08;101793.91;6163725;23;20017;-80
2022/08/13 11:46:25;;;;;;;1.52;1.10;;;;;;;29.21;40.07;101795.03;6186675;23;20300;-80
2022/08/13 11:48:55;;;;;;;1.20;0.90;;;;;;;29.35;40.01;101797.78;6184442;23;20044;-80
2022/08/13 11:51:45;;;;;;;4.30;1.27;;;;;;;29.35;38.62;101807.75;6146526;23;20328;-81
2022/08/13 11:54:24;;;;;;;1.45;1.30;;;;;;;29.28;38.69;101788.28;6149051;23;20024;-79
2022/08/13 11:57:06;;;;;;;3.60;1.33;;;;;;;29.35;38.70;101791.47;6158393;23;20317;-79
2022/08/13 11:59:37;;;;;;;1.17;0.98;;;;;;;29.37;38.70;101789.53;6185899;23;20053;-79
2022/08/13 12:02:12;;;;;;;2.45;1.20;;;;;;;29.43;38.40;101800.00;6181739;23;20040;-79
2022/08/13 12:04:43;;;;;;;3.70;1.10;;;;;;;29.44;38.83;101793.63;6184262;23;20024;-81
2022/08/13 12:07:23;;;;;;;4.30;1.00;;;;;;;29.48;38.52;101794.31;6187499;23;20028;-80
2022/08/13 12:09:54;;;;;;;4.68;1.33;;;;;;;29.54;37.84;101778.50;6143339;23;20346;-81
2022/08/13 12:12:26;;;;;;;1.45;1.35;;;;;;;29.55;38.23;101774.84;6186304;23;20021;-79
2022/08/13 12:14:59;;;;;;;3.95;1.42;;;;;;;29.54;37.87;101778.50;6185347;23;20420;-80
2022/08/13 12:17:29;;;;;;;4.78;1.08;;;;;;;29.54;38.10;101780.34;6188866;23;20023;-80
2022/08/13 12:20:23;;;;;;;5.43;1.48;;;;;;;29.49;37.39;101772.50;6168943;23;20408;-81
2022/08/13 12:23:00;;;;;;;1.60;1.00;;;;;;;29.54;38.22;101781.22;6184820;23;20371;-82
2022/08/13 12:25:31;;;;;;;1.58;1.20;;;;;;;29.60;38.20;101765.53;6190901;23;20017;-79
2022/08/13 12:28:27;;;;;;;3.67;1.20;;;;;;;29.65;38.48;101766.97;6164697;23;20025;-80